Time;durP1;ratioP1;P1;durP2;ratioP2;P2;SDS_P1;SDS_P2;PMS_P1;PMS_P2;Temp;Humidity;BMP_temperature;BMP_pressure;BME280_temperature;BME280_humidity;BME280_pressure;Samples;Min_cycle;Max_cycle;Signal;HPM_P1;HPM_P2
2022/09/10 00:00:38;;;;;;;3.60;1.13;;;17.00;86.50;;;;;;4971465;28;20076;-69
2022/09/10 00:03:04;;;;;;;3.95;1.20;;;17.00;86.40;;;;;;4972464;28;20502;-69
2022/09/10 00:05:33;;;;;;;4.97;1.20;;;17.00;86.50;;;;;;4990462;28;20057;-69
2022/09/10 00:07:58;;;;;;;3.97;1.00;;;17.00;86.20;;;;;;4974905;28;20086;-69
2022/09/10 00:10:25;;;;;;;2.03;0.75;;;17.00;86.20;;;;;;4980315;28;20439;-69
2022/09/10 00:12:50;;;;;;;3.95;1.25;;;17.00;86.10;;;;;;4968437;28;20050;-69
2022/09/10 00:15:16;;;;;;;5.65;0.95;;;17.00;86.00;;;;;;4962139;28;20056;-69
2022/09/10 00:17:42;;;;;;;2.83;1.02;;;17.00;85.90;;;;;;4970771;28;20072;-69
2022/09/10 00:20:09;;;;;;;1.25;0.75;;;17.00;86.00;;;;;;4980556;28;20699;-70
2022/09/10 00:22:35;;;;;;;3.40;1.05;;;17.00;85.90;;;;;;4977180;28;20046;-69
2022/09/10 00:25:02;;;;;;;3.72;0.95;;;17.00;86.00;;;;;;4965220;28;20053;-69
2022/09/10 00:27:28;;;;;;;2.92;0.95;;;17.00;86.30;;;;;;4926866;28;20046;-69
2022/09/10 00:29:53;;;;;;;2.38;1.00;;;17.00;86.20;;;;;;4961019;28;20046;-70
2022/09/10 00:32:22;;;;;;;4.93;1.38;;;16.90;86.20;;;;;;4967419;28;20078;-70
2022/09/10 00:45:26;;;;;;;3.40;1.00;;;16.90;86.60;;;;;;4869875;29;20098;-69
2022/09/10 00:47:53;;;;;;;3.50;0.93;;;16.90;86.50;;;;;;4906643;29;20421;-68
2022/09/10 00:50:34;;;;;;;2.75;0.80;;;16.90;86.50;;;;;;4955618;28;20050;-69
2022/09/10 00:53:05;;;;;;;2.72;0.80;;;16.90;86.50;;;;;;4980794;28;20053;-69
2022/09/10 00:55:33;;;;;;;2.63;0.90;;;16.90;86.80;;;;;;4947394;28;20042;-69
2022/09/10 00:57:59;;;;;;;3.07;1.00;;;16.80;87.30;;;;;;4949013;28;20096;-69
2022/09/10 01:00:24;;;;;;;2.28;0.90;;;16.80;87.20;;;;;;4963095;28;20043;-69
2022/09/10 01:02:51;;;;;;;4.15;0.90;;;16.80;87.40;;;;;;4962080;28;20043;-69
2022/09/10 01:05:17;;;;;;;4.93;1.00;;;16.90;87.60;;;;;;4961938;28;20053;-69
2022/09/10 01:07:43;;;;;;;7.57;1.35;;;16.80;87.60;;;;;;4959000;28;20043;-69
2022/09/10 01:10:28;;;;;;;4.53;0.95;;;16.80;87.50;;;;;;4932005;28;20050;-69
2022/09/10 01:13:12;;;;;;;2.40;0.90;;;16.80;87.80;;;;;;4972836;28;20057;-69
2022/09/10 01:16:00;;;;;;;4.72;1.00;;;16.80;88.00;;;;;;4978131;28;20042;-70
2022/09/10 01:18:58;;;;;;;4.68;0.82;;;16.80;88.90;;;;;;4980111;28;20050;-70
2022/09/10 01:21:29;;;;;;;2.33;0.90;;;16.80;89.30;;;;;;4967308;28;20089;-70
2022/09/10 01:24:20;;;;;;;6.68;1.10;;;16.70;89.60;;;;;;4957497;28;20046;-69
2022/09/10 01:27:05;;;;;;;3.80;0.85;;;16.80;89.20;;;;;;4967114;28;20483;-70
2022/09/10 01:30:04;;;;;;;8.40;1.42;;;16.80;89.10;;;;;;4977668;28;20479;-69
2022/09/10 01:33:04;;;;;;;4.63;1.20;;;16.80;89.20;;;;;;4971633;28;20050;-70
2022/09/10 01:35:52;;;;;;;3.33;1.10;;;16.70;88.70;;;;;;4967502;28;20152;-69
2022/09/10 01:38:24;;;;;;;6.22;1.10;;;16.70;88.70;;;;;;4969075;28;20136;-70
2022/09/10 01:40:51;;;;;;;5.03;1.00;;;16.80;88.90;;;;;;4954442;28;20079;-69
2022/09/10 01:43:17;;;;;;;5.40;1.40;;;16.70;88.90;;;;;;4957917;28;20547;-69
2022/09/10 01:46:19;;;;;;;4.13;1.30;;;16.80;89.30;;;;;;4976820;28;20483;-69
2022/09/10 01:49:22;;;;;;;4.40;1.25;;;16.70;89.00;;;;;;4973631;28;20128;-69
2022/09/10 01:52:14;;;;;;;6.25;1.38;;;16.70;89.50;;;;;;4960246;28;20046;-69
2022/09/10 01:55:04;;;;;;;3.78;1.10;;;16.60;90.00;;;;;;4978299;28;20082;-69
2022/09/10 01:57:43;;;;;;;4.68;1.20;;;16.60;89.80;;;;;;4970457;28;20058;-69
2022/09/10 02:00:12;;;;;;;3.35;1.10;;;16.60;89.80;;;;;;4954145;28;20049;-69
2022/09/10 02:02:58;;;;;;;2.20;0.95;;;16.70;89.80;;;;;;4944123;28;20357;-69
2022/09/10 02:05:25;;;;;;;2.55;0.95;;;16.60;89.70;;;;;;4971172;28;20054;-69
2022/09/10 02:07:53;;;;;;;4.03;1.30;;;16.70;89.80;;;;;;4976276;28;20097;-69
2022/09/10 02:10:19;;;;;;;5.30;1.48;;;16.70;90.00;;;;;;4953615;28;20062;-69
2022/09/10 02:12:45;;;;;;;3.65;1.30;;;16.60;90.00;;;;;;4938838;28;20054;-69
2022/09/10 02:15:10;;;;;;;4.65;1.60;;;16.60;90.10;;;;;;4970193;28;20046;-69
2022/09/10 02:17:37;;;;;;;5.68;1.45;;;16.60;90.20;;;;;;4937921;28;20051;-69
2022/09/10 02:20:08;;;;;;;4.75;1.25;;;16.60;90.00;;;;;;4954299;28;20047;-69
2022/09/10 02:22:37;;;;;;;2.53;1.10;;;16.60;90.30;;;;;;4972683;28;20053;-69
2022/09/10 02:25:03;;;;;;;;;;;16.60;90.30;;;;;;4969451;28;20057;-69
2022/09/10 02:27:28;;;;;;;4.75;1.10;;;16.60;90.30;;;;;;4970856;28;20586;-69
2022/09/10 02:29:58;;;;;;;2.53;1.00;;;16.50;90.20;;;;;;4968279;28;20047;-69
2022/09/10 02:32:24;;;;;;;5.95;1.63;;;16.60;90.20;;;;;;4969706;28;20053;-69
2022/09/10 02:34:51;;;;;;;4.60;1.30;;;16.60;90.50;;;;;;4970803;28;20042;-69
2022/09/10 02:37:18;;;;;;;3.58;1.10;;;16.60;90.40;;;;;;4938075;28;20058;-69
2022/09/10 02:39:45;;;;;;;4.10;1.17;;;16.60;90.10;;;;;;4953979;28;20039;-69
2022/09/10 02:42:15;;;;;;;2.83;1.30;;;16.60;90.30;;;;;;4953686;28;20047;-69
2022/09/10 02:44:41;;;;;;;2.67;1.00;;;16.50;90.40;;;;;;4956573;28;20104;-69
2022/09/10 02:47:07;;;;;;;4.22;1.50;;;16.60;90.20;;;;;;4957103;28;20424;-70
2022/09/10 02:49:33;;;;;;;3.50;1.10;;;16.60;90.10;;;;;;4970341;28;20050;-70
2022/09/10 02:52:01;;;;;;;2.75;0.98;;;16.60;90.40;;;;;;4952176;28;20050;-69
2022/09/10 02:54:27;;;;;;;3.20;0.93;;;16.60;90.30;;;;;;4965052;28;20466;-69
2022/09/10 02:56:53;;;;;;;2.25;0.90;;;16.60;90.30;;;;;;4952067;28;20435;-69
2022/09/10 02:59:19;;;;;;;3.03;1.05;;;16.50;90.40;;;;;;4967369;28;20046;-70
2022/09/10 03:01:47;;;;;;;4.35;1.20;;;16.50;90.50;;;;;;4973052;28;20116;-69
2022/09/10 03:04:14;;;;;;;3.20;1.00;;;16.60;90.50;;;;;;4955009;28;20061;-69
2022/09/10 03:06:39;;;;;;;4.75;1.10;;;16.60;90.40;;;;;;4979367;28;20053;-70
2022/09/10 03:09:08;;;;;;;4.28;1.17;;;16.60;90.20;;;;;;4988227;28;20056;-69
2022/09/10 03:11:39;;;;;;;3.38;1.10;;;16.60;90.50;;;;;;4960838;28;20046;-70
2022/09/10 03:14:07;;;;;;;4.07;1.25;;;16.60;90.50;;;;;;4955173;28;20623;-70
2022/09/10 03:16:32;;;;;;;2.90;1.13;;;16.50;90.40;;;;;;4971648;28;20758;-69
2022/09/10 03:18:58;;;;;;;5.82;1.80;;;16.50;90.50;;;;;;4953385;28;20357;-69
2022/09/10 03:21:24;;;;;;;6.55;3.28;;;16.50;90.50;;;;;;4954100;28;20459;-69
2022/09/10 03:23:51;;;;;;;8.48;3.17;;;16.50;90.70;;;;;;4952143;28;20543;-69
2022/09/10 03:26:19;;;;;;;8.68;4.65;;;16.40;90.80;;;;;;4995487;28;20066;-69
2022/09/10 03:28:45;;;;;;;6.13;1.35;;;16.40;91.40;;;;;;4954169;28;20046;-69
2022/09/10 03:31:11;;;;;;;8.50;1.70;;;16.30;91.20;;;;;;4955995;28;20109;-69
2022/09/10 03:33:37;;;;;;;4.00;1.23;;;16.30;91.20;;;;;;4938480;28;20055;-69
2022/09/10 03:36:03;;;;;;;3.58;1.15;;;16.30;91.30;;;;;;4944120;28;20047;-69
2022/09/10 03:38:31;;;;;;;3.70;1.17;;;16.30;91.40;;;;;;4974830;28;20064;-69
2022/09/10 03:40:57;;;;;;;5.28;1.30;;;16.30;91.20;;;;;;4977307;28;20047;-69
2022/09/10 03:43:24;;;;;;;3.80;1.10;;;16.30;91.20;;;;;;4972759;28;20047;-69
2022/09/10 03:45:50;;;;;;;4.72;1.23;;;16.30;91.00;;;;;;4969135;28;20056;-69
2022/09/10 03:48:16;;;;;;;2.83;1.10;;;16.30;91.10;;;;;;4973016;28;20488;-69
2022/09/10 03:50:43;;;;;;;3.00;0.98;;;16.30;91.10;;;;;;4968842;28;20078;-69
2022/09/10 03:53:10;;;;;;;3.28;1.00;;;16.40;91.00;;;;;;4957862;28;20468;-69
2022/09/10 03:55:36;;;;;;;3.97;1.17;;;16.40;91.10;;;;;;4943576;28;20415;-69
2022/09/10 03:58:02;;;;;;;3.92;1.20;;;16.40;91.30;;;;;;4960146;28;20059;-69
2022/09/10 04:00:27;;;;;;;3.15;0.95;;;16.40;91.10;;;;;;4953116;28;20061;-69
2022/09/10 04:02:53;;;;;;;4.63;1.25;;;16.40;91.20;;;;;;4959679;28;20058;-69
2022/09/10 04:05:19;;;;;;;2.33;0.93;;;16.40;91.20;;;;;;4932734;28;20069;-68
2022/09/10 04:07:45;;;;;;;2.63;0.90;;;16.30;91.20;;;;;;4988328;28;20440;-69
2022/09/10 04:10:12;;;;;;;11.75;2.60;;;16.30;91.30;;;;;;4937114;29;20047;-69
2022/09/10 04:12:38;;;;;;;9.13;2.70;;;16.30;91.30;;;;;;4954863;28;20090;-69
2022/09/10 04:15:04;;;;;;;11.52;5.43;;;16.30;91.40;;;;;;4954509;28;20126;-69
2022/09/10 04:17:30;;;;;;;3.67;1.42;;;16.30;91.50;;;;;;4952506;28;20051;-69
2022/09/10 04:19:56;;;;;;;3.45;1.00;;;16.20;91.60;;;;;;4941765;29;20055;-69
2022/09/10 04:22:22;;;;;;;3.80;1.10;;;16.10;91.50;;;;;;4940144;29;20122;-69
2022/09/10 04:24:47;;;;;;;4.20;1.23;;;16.10;91.50;;;;;;4963267;28;20141;-69
2022/09/10 04:27:14;;;;;;;3.15;1.08;;;16.10;91.60;;;;;;4955185;28;20043;-69
2022/09/10 04:29:41;;;;;;;4.03;1.15;;;16.10;91.60;;;;;;4956717;28;20055;-69
2022/09/10 04:32:07;;;;;;;4.05;1.40;;;16.10;91.60;;;;;;4955231;28;20058;-69
2022/09/10 04:34:33;;;;;;;3.92;1.05;;;16.10;91.70;;;;;;4937212;28;20456;-69
2022/09/10 04:36:59;;;;;;;3.17;1.15;;;16.10;91.60;;;;;;4923767;28;20047;-69
2022/09/10 04:39:24;;;;;;;3.47;1.10;;;16.20;91.50;;;;;;4958852;28;20525;-69
2022/09/10 04:41:50;;;;;;;3.28;1.00;;;16.20;91.50;;;;;;4953866;28;20047;-70
2022/09/10 04:44:18;;;;;;;6.00;1.52;;;16.20;91.40;;;;;;4949526;28;20614;-70
2022/09/10 04:46:44;;;;;;;2.70;0.90;;;16.20;91.50;;;;;;4958167;28;20788;-69
2022/09/10 04:49:10;;;;;;;4.28;1.40;;;16.20;91.50;;;;;;4980708;28;20130;-69
2022/09/10 04:51:35;;;;;;;4.00;1.25;;;16.20;91.50;;;;;;4945894;28;20078;-70
2022/09/10 04:54:01;;;;;;;4.03;1.00;;;16.10;91.60;;;;;;4965266;28;20047;-70
2022/09/10 04:56:28;;;;;;;4.97;1.90;;;16.10;91.50;;;;;;4965049;28;20263;-69
2022/09/10 04:58:53;;;;;;;3.63;1.20;;;16.20;91.70;;;;;;4980905;28;20050;-70
2022/09/10 05:01:19;;;;;;;7.25;1.42;;;16.10;91.70;;;;;;4982094;28;20681;-70
2022/09/10 05:03:45;;;;;;;4.15;1.38;;;16.10;91.80;;;;;;4967625;28;20129;-69
2022/09/10 05:06:12;;;;;;;4.10;1.10;;;16.10;92.00;;;;;;4967935;28;20046;-70
2022/09/10 05:08:39;;;;;;;4.65;1.38;;;16.10;91.90;;;;;;4968063;28;20050;-70
2022/09/10 05:11:05;;;;;;;5.60;1.17;;;16.00;92.30;;;;;;4965035;28;20057;-70
2022/09/10 05:13:31;;;;;;;3.75;1.20;;;16.00;92.20;;;;;;4974448;28;20047;-70
2022/09/10 05:15:57;;;;;;;3.95;1.00;;;16.00;92.00;;;;;;4937425;28;20133;-70
2022/09/10 05:18:25;;;;;;;4.85;1.00;;;16.00;92.10;;;;;;4972865;28;20153;-70
2022/09/10 05:20:51;;;;;;;3.55;1.40;;;16.00;92.10;;;;;;4942569;28;20046;-70
2022/09/10 05:23:18;;;;;;;7.15;1.50;;;15.90;92.20;;;;;;4976951;28;20051;-70
2022/09/10 05:25:44;;;;;;;4.60;1.33;;;15.90;92.40;;;;;;4971631;28;20042;-70
2022/09/10 05:28:11;;;;;;;3.35;1.38;;;15.90;92.60;;;;;;4989814;28;20050;-70
2022/09/10 05:30:37;;;;;;;3.50;1.08;;;16.00;92.50;;;;;;4970749;28;20081;-70
2022/09/10 05:33:04;;;;;;;5.25;0.93;;;16.00;92.30;;;;;;4973226;28;20583;-70
2022/09/10 05:35:32;;;;;;;4.88;1.27;;;16.10;92.60;;;;;;4976608;28;20439;-70
2022/09/10 05:37:59;;;;;;;4.33;1.47;;;16.10;92.40;;;;;;4932956;28;20057;-70
2022/09/10 05:40:25;;;;;;;2.80;1.10;;;16.10;92.30;;;;;;4978543;28;20050;-69
2022/09/10 05:42:52;;;;;;;3.60;1.10;;;16.20;92.10;;;;;;4962054;28;20054;-69
2022/09/10 05:45:19;;;;;;;2.97;1.38;;;16.20;92.00;;;;;;4963961;28;20042;-70
2022/09/10 05:47:46;;;;;;;5.47;1.70;;;16.20;92.00;;;;;;4970304;28;20071;-70
2022/09/10 05:50:13;;;;;;;6.25;1.92;;;16.20;92.00;;;;;;4961680;28;20057;-69
2022/09/10 05:52:39;;;;;;;6.63;1.83;;;16.20;91.90;;;;;;4977533;28;20053;-70
2022/09/10 05:55:05;;;;;;;8.30;2.15;;;16.20;92.00;;;;;;4934015;28;20046;-70
2022/09/10 05:57:31;;;;;;;5.68;1.88;;;16.20;91.80;;;;;;4922282;28;20069;-70
2022/09/10 05:59:58;;;;;;;6.43;1.90;;;16.20;91.90;;;;;;4979132;28;20047;-70
2022/09/10 06:02:25;;;;;;;5.72;1.88;;;16.20;91.80;;;;;;4949512;28;20047;-70
2022/09/10 06:04:50;;;;;;;7.63;2.17;;;16.30;91.90;;;;;;4946837;28;20491;-70
2022/09/10 06:07:17;;;;;;;7.97;2.33;;;16.40;91.80;;;;;;4951291;28;20109;-72
2022/09/10 06:09:42;;;;;;;7.43;2.40;;;16.40;91.80;;;;;;4946905;28;20727;-70
2022/09/10 06:12:11;;;;;;;6.70;2.28;;;16.40;91.80;;;;;;4956585;28;20384;-69
2022/09/10 06:14:38;;;;;;;4.75;2.03;;;16.50;91.70;;;;;;4935724;28;20086;-69
2022/09/10 06:17:04;;;;;;;8.73;1.90;;;16.40;91.80;;;;;;4904127;28;20361;-69
2022/09/10 06:19:31;;;;;;;5.50;1.65;;;16.50;91.70;;;;;;4955988;28;20074;-69
2022/09/10 06:21:56;;;;;;;5.10;1.60;;;16.50;91.70;;;;;;4935801;28;20105;-69
2022/09/10 06:24:24;;;;;;;4.07;1.30;;;16.50;91.80;;;;;;4950107;28;20054;-69
2022/09/10 06:26:50;;;;;;;4.18;1.20;;;16.50;91.60;;;;;;4927212;28;20074;-70
2022/09/10 06:29:18;;;;;;;4.07;1.40;;;16.40;91.50;;;;;;4934778;28;20086;-69
2022/09/10 06:31:45;;;;;;;3.93;1.53;;;16.40;91.70;;;;;;4941325;28;20051;-69
2022/09/10 06:34:12;;;;;;;3.83;1.10;;;16.40;91.50;;;;;;4941215;28;20293;-70
2022/09/10 06:36:38;;;;;;;4.97;1.15;;;16.50;91.40;;;;;;4950734;28;20086;-69
2022/09/10 06:39:06;;;;;;;4.18;1.50;;;16.50;91.50;;;;;;4919174;28;20051;-69
2022/09/10 06:41:32;;;;;;;3.13;1.13;;;16.50;91.40;;;;;;4971164;28;20043;-69
2022/09/10 06:43:58;;;;;;;3.42;1.25;;;16.50;91.40;;;;;;4934490;28;20695;-69
2022/09/10 06:46:23;;;;;;;3.78;1.20;;;16.50;91.40;;;;;;4953167;28;20070;-69
2022/09/10 06:48:49;;;;;;;2.83;1.10;;;16.50;91.20;;;;;;4966751;28;20061;-69
2022/09/10 06:51:15;;;;;;;4.05;1.10;;;16.60;91.20;;;;;;4952577;28;20051;-69
2022/09/10 06:53:45;;;;;;;4.40;1.00;;;16.70;91.10;;;;;;4941948;28;20539;-70
2022/09/10 06:56:10;;;;;;;5.82;1.20;;;16.70;91.10;;;;;;4950271;28;20130;-69
2022/09/10 06:58:37;;;;;;;3.83;1.23;;;16.70;91.00;;;;;;4936325;29;20531;-69
2022/09/10 07:01:14;;;;;;;6.85;1.33;;;16.70;91.10;;;;;;4932956;28;20043;-69
2022/09/10 07:03:41;;;;;;;5.47;1.50;;;16.70;91.10;;;;;;4968344;28;20128;-69
2022/09/10 07:06:09;;;;;;;4.57;1.48;;;16.80;90.90;;;;;;4932114;28;20070;-69
2022/09/10 07:08:35;;;;;;;5.30;1.60;;;16.70;90.80;;;;;;4952949;28;20596;-69
2022/09/10 07:11:06;;;;;;;7.32;1.23;;;16.70;91.00;;;;;;4968527;28;20058;-69
2022/09/10 07:13:33;;;;;;;5.10;1.15;;;16.80;91.00;;;;;;4975740;28;20066;-70
2022/09/10 07:15:59;;;;;;;5.75;1.60;;;16.90;90.80;;;;;;4964009;28;20318;-69
2022/09/10 07:18:27;;;;;;;5.75;1.40;;;16.90;90.70;;;;;;4958786;28;20081;-69
2022/09/10 07:20:53;;;;;;;5.70;1.55;;;16.90;90.60;;;;;;4907080;28;20577;-69
2022/09/10 07:23:20;;;;;;;5.30;1.40;;;16.90;90.70;;;;;;4954357;28;20182;-69
2022/09/10 07:25:46;;;;;;;5.40;1.50;;;16.90;91.00;;;;;;4931021;29;20077;-69
2022/09/10 07:28:14;;;;;;;5.53;1.67;;;16.90;90.80;;;;;;4955120;28;20062;-69
2022/09/10 07:30:40;;;;;;;4.95;1.40;;;16.90;90.40;;;;;;4935048;29;20385;-69
2022/09/10 07:33:07;;;;;;;5.38;1.42;;;17.00;90.50;;;;;;4954436;28;20051;-69
2022/09/10 07:35:37;;;;;;;4.90;1.60;;;17.00;90.60;;;;;;4942849;28;20097;-68
2022/09/10 07:38:09;;;;;;;5.45;1.60;;;17.00;90.50;;;;;;4953891;28;20051;-69
2022/09/10 07:40:35;;;;;;;8.93;1.70;;;17.00;90.60;;;;;;4930467;28;20043;-69
2022/09/10 07:43:00;;;;;;;3.88;1.50;;;17.10;90.60;;;;;;4955176;28;20254;-69
2022/09/10 07:45:27;;;;;;;6.95;1.67;;;17.10;90.40;;;;;;4955318;28;20114;-69
2022/09/10 07:47:52;;;;;;;4.20;1.77;;;17.10;90.40;;;;;;4951938;29;20051;-68
2022/09/10 07:50:18;;;;;;;5.95;2.00;;;17.20;90.40;;;;;;4952336;29;20362;-68
2022/09/10 07:52:44;;;;;;;4.40;1.77;;;17.30;90.30;;;;;;4945777;28;20052;-69
2022/09/10 07:55:12;;;;;;;5.22;1.65;;;17.30;90.20;;;;;;4955034;28;20237;-69
2022/09/10 07:57:38;;;;;;;7.07;1.80;;;17.30;90.00;;;;;;4973348;28;20073;-69
2022/09/10 08:00:07;;;;;;;7.35;2.00;;;17.30;90.20;;;;;;4937329;29;20090;-69
2022/09/10 08:02:32;;;;;;;;;;;17.40;90.20;;;;;;4940239;28;20469;-69
2022/09/10 08:04:58;;;;;;;7.55;2.05;;;17.40;89.80;;;;;;4944853;29;19985;-70
2022/09/10 08:07:25;;;;;;;7.00;2.13;;;17.50;89.80;;;;;;4930351;28;20126;-69
2022/09/10 08:09:51;;;;;;;8.43;2.25;;;17.50;89.60;;;;;;4966282;28;20090;-71
2022/09/10 08:12:17;;;;;;;4.60;1.73;;;17.50;89.70;;;;;;4960079;28;20138;-68
2022/09/10 08:14:43;;;;;;;8.63;2.45;;;17.50;89.70;;;;;;4969283;28;20125;-70
2022/09/10 08:17:09;;;;;;;5.57;1.67;;;17.50;90.00;;;;;;4952499;28;20199;-72
2022/09/10 08:19:35;;;;;;;9.13;1.95;;;17.60;89.90;;;;;;4909745;28;20043;-73
2022/09/10 08:22:02;;;;;;;5.68;2.08;;;17.60;89.80;;;;;;4968431;28;20588;-71
2022/09/10 08:24:29;;;;;;;7.13;1.77;;;17.70;89.50;;;;;;4953003;28;20385;-71
2022/09/10 08:26:55;;;;;;;6.78;2.45;;;17.70;89.30;;;;;;4952681;28;20378;-70
2022/09/10 08:29:22;;;;;;;7.55;2.03;;;17.70;89.30;;;;;;4936942;28;20086;-70
2022/09/10 08:31:47;;;;;;;10.60;5.30;;;17.80;89.10;;;;;;4953487;28;20078;-71
2022/09/10 08:34:13;;;;;;;7.85;2.55;;;17.80;88.70;;;;;;4933443;28;20466;-70
2022/09/10 08:36:41;;;;;;;4.20;1.65;;;17.90;88.20;;;;;;4921559;28;20047;-71
2022/09/10 08:39:06;;;;;;;4.87;1.57;;;17.90;87.70;;;;;;4953792;28;20082;-70
2022/09/10 08:41:45;;;;;;;5.40;1.75;;;18.00;88.20;;;;;;4952420;28;20307;-70
2022/09/10 08:44:15;;;;;;;;;;;18.00;87.60;;;;;;4953810;28;20047;-69
2022/09/10 08:46:50;;;;;;;4.93;1.77;;;18.00;86.90;;;;;;4971366;28;20320;-70
2022/09/10 08:49:29;;;;;;;5.78;2.10;;;18.00;86.50;;;;;;4953014;28;20547;-70
2022/09/10 08:51:59;;;;;;;8.82;2.20;;;18.00;86.50;;;;;;4968784;28;20054;-70
2022/09/10 08:54:29;;;;;;;6.88;1.70;;;18.10;86.10;;;;;;4971038;28;20456;-70
2022/09/10 08:56:57;;;;;;;7.22;1.88;;;18.10;85.80;;;;;;4968916;28;20058;-69
2022/09/10 08:59:43;;;;;;;5.88;1.63;;;18.20;85.80;;;;;;4951864;28;20054;-70
2022/09/10 09:02:35;;;;;;;5.75;1.67;;;18.30;85.90;;;;;;4953956;28;20108;-69
2022/09/10 09:05:21;;;;;;;8.63;1.90;;;18.40;84.80;;;;;;4949850;28;20372;-70
2022/09/10 09:07:48;;;;;;;4.55;1.60;;;18.40;83.90;;;;;;4970683;28;20046;-70
2022/09/10 09:10:50;;;;;;;4.05;1.50;;;18.40;83.50;;;;;;4977705;28;20046;-69
2022/09/10 09:13:17;;;;;;;5.47;1.20;;;18.40;83.60;;;;;;4927903;28;20046;-70
2022/09/10 09:15:50;;;;;;;2.60;1.20;;;18.40;84.20;;;;;;4971497;28;20066;-70
2022/09/10 09:18:23;;;;;;;3.08;0.90;;;18.40;82.70;;;;;;4973265;28;20697;-69
2022/09/10 09:20:51;;;;;;;3.53;1.10;;;18.50;82.60;;;;;;4954739;28;20492;-69
2022/09/10 09:23:17;;;;;;;;;;;18.50;81.80;;;;;;4967131;28;20380;-70
2022/09/10 09:25:49;;;;;;;2.17;0.90;;;18.60;81.70;;;;;;4962081;28;20004;-69
2022/09/10 09:28:24;;;;;;;3.13;0.88;;;18.60;81.60;;;;;;4961174;28;20094;-69
2022/09/10 09:30:51;;;;;;;2.92;1.00;;;18.70;81.20;;;;;;4925071;28;20055;-70
2022/09/10 09:33:23;;;;;;;4.32;1.20;;;18.80;81.00;;;;;;4980234;28;20047;-70
2022/09/10 09:36:02;;;;;;;4.13;1.10;;;18.80;79.10;;;;;;4947659;28;20473;-69
2022/09/10 09:38:36;;;;;;;4.82;1.27;;;18.90;79.10;;;;;;4943327;28;20125;-70
2022/09/10 09:41:25;;;;;;;3.78;0.93;;;19.00;78.20;;;;;;4933015;28;20047;-70
2022/09/10 09:44:01;;;;;;;5.38;1.25;;;19.20;77.70;;;;;;4924406;28;20055;-70
2022/09/10 09:46:27;;;;;;;4.10;1.23;;;19.20;78.10;;;;;;4938012;28;20071;-69
2022/09/10 09:48:56;;;;;;;2.85;1.00;;;19.40;78.70;;;;;;4980276;28;20134;-69
2022/09/10 09:51:24;;;;;;;3.25;0.75;;;19.60;77.50;;;;;;4962599;28;20058;-69
2022/09/10 09:53:52;;;;;;;3.47;1.00;;;19.60;75.30;;;;;;4946826;28;20074;-69
2022/09/10 09:56:35;;;;;;;3.75;1.20;;;19.70;75.30;;;;;;4954161;28;20046;-69
2022/09/10 09:59:11;;;;;;;3.15;1.15;;;19.70;76.00;;;;;;4971870;28;20053;-69
2022/09/10 10:01:41;;;;;;;5.70;1.10;;;19.80;75.80;;;;;;4932775;28;20150;-69
2022/09/10 10:04:32;;;;;;;6.00;1.30;;;19.80;75.40;;;;;;4940353;28;20049;-69
2022/09/10 10:07:00;;;;;;;3.35;0.90;;;20.00;74.00;;;;;;4959456;28;20108;-68
2022/09/10 10:09:37;;;;;;;4.28;1.10;;;20.00;74.60;;;;;;4952816;28;20051;-70
2022/09/10 10:12:08;;;;;;;3.75;1.38;;;20.20;75.90;;;;;;4973957;28;20468;-70
2022/09/10 10:14:38;;;;;;;4.18;1.63;;;20.30;74.70;;;;;;4938876;28;20148;-69
2022/09/10 10:17:23;;;;;;;4.65;1.48;;;20.30;73.80;;;;;;4951732;28;20395;-70
2022/09/10 10:20:09;;;;;;;2.92;1.20;;;20.20;72.50;;;;;;4971393;28;20125;-70
2022/09/10 10:22:36;;;;;;;5.35;1.63;;;20.30;74.00;;;;;;4952625;28;20104;-70
2022/09/10 10:25:04;;;;;;;4.03;1.55;;;20.40;72.50;;;;;;4968935;28;20042;-70
2022/09/10 10:27:40;;;;;;;4.05;1.48;;;20.30;73.30;;;;;;4934518;28;20046;-71
2022/09/10 10:30:13;;;;;;;3.03;1.10;;;20.40;72.30;;;;;;4956985;28;20046;-70
2022/09/10 10:32:43;;;;;;;6.18;1.20;;;20.50;72.80;;;;;;4964325;28;20097;-67
2022/09/10 10:35:28;;;;;;;5.45;1.30;;;20.50;72.10;;;;;;4959078;28;20077;-67
2022/09/10 10:38:27;;;;;;;3.65;1.40;;;20.40;72.10;;;;;;4977335;28;20054;-68
2022/09/10 10:41:28;;;;;;;3.00;1.25;;;20.30;72.00;;;;;;4972709;28;20043;-68
2022/09/10 10:44:16;;;;;;;5.47;1.52;;;20.50;72.60;;;;;;4937404;28;20066;-69
2022/09/10 10:46:57;;;;;;;3.73;1.13;;;20.60;70.80;;;;;;4944311;28;20117;-69
2022/09/10 10:49:47;;;;;;;3.22;1.33;;;20.40;72.10;;;;;;4958816;28;20274;-68
2022/09/10 10:52:23;;;;;;;3.00;1.50;;;20.30;71.80;;;;;;4961951;28;20054;-69
2022/09/10 10:55:10;;;;;;;5.80;1.35;;;20.20;72.50;;;;;;4976202;28;20050;-69
2022/09/10 10:57:46;;;;;;;5.03;1.23;;;20.10;72.70;;;;;;4976549;28;20065;-67
2022/09/10 11:00:16;;;;;;;3.78;1.25;;;19.90;73.10;;;;;;4984651;28;20270;-68
2022/09/10 11:03:00;;;;;;;3.72;1.30;;;19.90;73.50;;;;;;4959798;28;20049;-67
2022/09/10 11:05:37;;;;;;;3.50;1.30;;;19.90;73.80;;;;;;4974981;28;20044;-69
2022/09/10 11:08:28;;;;;;;3.13;1.30;;;19.90;73.40;;;;;;4957081;28;20442;-69
2022/09/10 11:11:10;;;;;;;3.05;1.23;;;19.90;72.90;;;;;;4948661;28;20366;-69
2022/09/10 11:13:45;;;;;;;3.72;1.40;;;19.90;73.30;;;;;;4975250;28;20054;-69
2022/09/10 11:16:15;;;;;;;3.28;1.35;;;20.00;72.90;;;;;;4970639;28;20145;-68
2022/09/10 11:18:43;;;;;;;6.28;1.70;;;20.30;73.10;;;;;;4964477;28;20050;-69
2022/09/10 11:21:12;;;;;;;5.53;1.65;;;20.60;71.60;;;;;;4931611;28;20052;-69
2022/09/10 11:23:50;;;;;;;2.35;1.20;;;20.90;70.50;;;;;;4962727;28;20062;-69
2022/09/10 11:26:25;;;;;;;4.30;1.30;;;21.00;68.60;;;;;;4956889;28;20050;-69
2022/09/10 11:29:02;;;;;;;3.60;1.40;;;20.90;70.00;;;;;;4958358;28;20885;-70
2022/09/10 11:31:32;;;;;;;3.13;1.20;;;20.80;70.60;;;;;;4908920;28;20121;-69
2022/09/10 11:34:07;;;;;;;2.38;1.20;;;20.80;70.60;;;;;;4976570;28;20646;-69
2022/09/10 11:36:50;;;;;;;2.25;1.02;;;20.70;70.10;;;;;;4957897;28;20531;-69
2022/09/10 11:39:36;;;;;;;2.05;0.77;;;20.70;70.60;;;;;;4947434;28;20081;-69
2022/09/10 11:42:20;;;;;;;1.98;0.82;;;20.70;70.60;;;;;;4972324;28;20038;-69
2022/09/10 11:45:06;;;;;;;3.60;1.10;;;20.60;70.60;;;;;;4990056;28;20134;-69
2022/09/10 11:47:38;;;;;;;2.25;0.90;;;20.50;71.40;;;;;;4948134;28;20629;-70
2022/09/10 11:50:28;;;;;;;1.52;0.60;;;20.40;71.80;;;;;;4951548;28;20201;-69
2022/09/10 11:52:58;;;;;;;4.88;0.90;;;20.30;72.40;;;;;;4966311;28;20073;-70
2022/09/10 11:55:30;;;;;;;1.77;0.80;;;20.20;73.20;;;;;;4951066;28;20043;-70
2022/09/10 11:58:10;;;;;;;2.95;0.85;;;20.10;73.50;;;;;;4946807;28;20082;-69
2022/09/10 12:00:44;;;;;;;2.85;1.30;;;20.10;73.60;;;;;;4950995;28;20122;-69
2022/09/10 12:03:13;;;;;;;2.20;0.80;;;20.10;73.30;;;;;;4959942;28;20047;-69
2022/09/10 12:06:00;;;;;;;2.90;0.90;;;19.90;73.70;;;;;;4961127;28;20085;-69
2022/09/10 12:08:54;;;;;;;4.00;1.20;;;19.90;73.70;;;;;;4966571;28;20133;-69
2022/09/10 12:11:42;;;;;;;6.18;1.00;;;19.80;74.70;;;;;;4959694;28;20058;-69
2022/09/10 12:14:15;;;;;;;2.17;1.00;;;19.80;74.60;;;;;;4962456;28;20055;-69
2022/09/10 12:17:02;;;;;;;2.13;0.90;;;19.80;74.40;;;;;;4981300;28;20159;-70
2022/09/10 12:19:31;;;;;;;2.20;0.80;;;19.90;74.80;;;;;;4930598;28;20050;-69
2022/09/10 12:22:02;;;;;;;2.38;1.00;;;19.80;74.30;;;;;;4929742;28;20046;-69
2022/09/10 12:24:30;;;;;;;2.30;0.80;;;19.70;74.40;;;;;;4933809;28;20058;-69
2022/09/10 12:26:58;;;;;;;2.97;1.00;;;19.60;74.30;;;;;;4938144;28;20047;-69
2022/09/10 12:29:36;;;;;;;5.00;0.70;;;19.60;74.40;;;;;;4938438;28;20078;-69
2022/09/10 12:32:18;;;;;;;4.43;1.25;;;19.50;74.70;;;;;;4935176;28;20043;-70
2022/09/10 12:34:47;;;;;;;4.45;1.50;;;19.40;74.90;;;;;;4957143;28;20051;-70
2022/09/10 12:37:26;;;;;;;4.70;1.30;;;19.50;75.70;;;;;;4934939;29;20384;-70
2022/09/10 12:40:27;;;;;;;4.60;1.30;;;19.60;75.60;;;;;;4935298;29;20608;-70
2022/09/10 12:43:35;;;;;;;4.25;1.35;;;19.60;75.40;;;;;;4966005;28;20101;-70
2022/09/10 12:46:06;;;;;;;4.03;1.63;;;19.70;75.70;;;;;;4945516;28;20047;-70
2022/09/10 12:49:02;;;;;;;3.65;1.25;;;19.70;76.10;;;;;;4960575;28;20802;-69
2022/09/10 12:51:45;;;;;;;3.17;1.10;;;19.60;75.50;;;;;;4943639;28;20428;-70
2022/09/10 12:54:20;;;;;;;2.38;1.00;;;19.50;76.40;;;;;;4945478;28;20514;-70
2022/09/10 12:56:49;;;;;;;2.60;0.90;;;19.50;76.80;;;;;;4962089;28;20362;-70
2022/09/10 12:59:27;;;;;;;3.55;1.10;;;19.50;76.90;;;;;;4936659;28;20952;-69
2022/09/10 13:01:52;;;;;;;2.38;1.13;;;19.50;76.60;;;;;;4955260;28;20150;-69
2022/09/10 13:04:33;;;;;;;4.30;1.17;;;19.50;76.00;;;;;;4962623;28;20133;-69
2022/09/10 13:07:18;;;;;;;3.83;1.20;;;19.40;76.20;;;;;;4973303;28;20149;-69
2022/09/10 13:09:44;;;;;;;2.85;1.25;;;19.40;77.10;;;;;;4952463;28;20608;-70
2022/09/10 13:12:18;;;;;;;2.97;1.00;;;19.40;77.30;;;;;;4929412;28;20229;-70
2022/09/10 13:14:46;;;;;;;3.25;1.42;;;19.40;78.10;;;;;;4935048;28;20380;-70
2022/09/10 13:17:36;;;;;;;2.95;1.40;;;19.40;77.70;;;;;;4938281;28;20055;-69
2022/09/10 13:20:18;;;;;;;3.50;1.30;;;19.40;78.00;;;;;;4965781;28;20074;-69